Flight Track Log - Related Links

Times and Time Zones

All times are in EST time to prevent confusion due to time zone crossing. See the PDT4314 flight status page for this flight to view local times or setup timezone preferences in your user account.

Time Position Orientation Groundspeed Altitude Reporting Facility
EST Latitude Longitude Course Direction KTS MPH feet Rate Location/Type
Sun 07:19:00 PM 41.8345 -75.8577 180° South  Level Estimated
Sun 07:20:00 PM 41.7811 -75.9055 214° Southwest  Level FlightAware Approximate
Sun 07:21:00 PM 41.7192 -75.8833 160° South  Level Estimated
Sun 07:22:00 PM 41.6557 -75.8710 172° South  Level FlightAware Approximate
Sun 07:23:00 PM 41.6074 -75.8535 159° South  Level Estimated
Sun 07:24:00 PM 41.5606 -75.8301 160° South  Level FlightAware Approximate
Sun 07:25:00 PM 41.5122 -75.8128 153° Southeast  Level Estimated
Sun 07:26:00 PM 41.4518 -75.7912 161° South  Level Estimated
Sun 07:27:00 PM 41.3946 -75.7578 156° South  Level FlightAware Approximate
Sun 07:28:00 PM 41.3373 -75.7244 156° South  Level FlightAware Approximate
Sun 07:29:00 PM 41.2766 -75.7039 162° South  Level Estimated
Sun 07:30:00 PM 41.2181 -75.6748 159° South  Level FlightAware Approximate
Sun 07:31:00 PM 41.1595 -75.6457 159° South  Level FlightAware Approximate
Sun 07:32:00 PM 41.1009 -75.6166 160° South  Level FlightAware Approximate
Sun 07:33:00 PM 41.0424 -75.5876 160° South  Level FlightAware Approximate
Sun 07:34:00 PM 40.9814 -75.5692 163° South  Level Estimated
Sun 07:35:00 PM 40.9222 -75.5425 161° South  Level FlightAware Approximate
Sun 07:36:00 PM 40.8630 -75.5158 161° South  Level FlightAware Approximate
Sun 07:37:00 PM 40.8038 -75.4892 161° South  Level FlightAware Approximate
Sun 07:38:00 PM 40.7446 -75.4625 161° South  Level FlightAware Approximate
Sun 07:38:04 PM 40.6667 -75.4667 190° South 245 282 7,800  Level Philadelphia TRACON
Sun 07:39:00 PM 40.6833 -75.4468 190° South  Level Estimated
Sun 07:39:16 PM 40.5833 -75.4833 189° South 255 293 7,200  Level Philadelphia TRACON
Sun 07:40:00 PM 40.6222 -75.4645 192° South  Level FlightAware Approximate
Sun 07:40:16 PM 40.5000 -75.4500 163° South 273 314 6,600  Level Philadelphia TRACON
Sun 07:41:00 PM 40.5611 -75.4823 192° South  Level FlightAware Approximate
Sun 07:41:16 PM 40.4333 -75.4167 159° South 272 313 6,000  Level Philadelphia TRACON
Sun 07:42:00 PM 40.4901 -75.4571 187° South  Level Estimated
Sun 07:42:10 PM 40.3667 -75.3833 159° South 271 312 5,400  Level Philadelphia TRACON
Sun 07:43:00 PM 40.4191 -75.4321 190° South  Level Estimated
Sun 07:43:10 PM 40.3000 -75.3500 159° South 267 307 5,000  Level Philadelphia TRACON
Sun 07:44:10 PM 40.2333 -75.3167 159° South 254 292 5,000  Level Philadelphia TRACON
Sun 07:45:10 PM 40.1667 -75.2833 159° South 251 289 5,000 -150 Level Philadelphia TRACON
Sun 07:46:10 PM 40.1167 -75.2500 153° Southeast 257 296 4,700 -368 Descending Philadelphia TRACON
Sun 07:47:04 PM 40.0500 -75.2167 159° South 264 304 4,300 -368 Descending Philadelphia TRACON
Sun 07:48:04 PM 39.9833 -75.1833 159° South 231 266 4,000 -150 Descending Philadelphia TRACON
Sun 07:49:04 PM 39.9333 -75.1500 153° Southeast 216 249 4,000 -524 Level Philadelphia TRACON
Sun 07:50:10 PM 39.8667 -75.1500 180° South 208 239 2,900 -1,091 Descending Philadelphia TRACON
Sun 07:51:16 PM 39.8167 -75.1833 207° Southwest 135 155 1,600 -1,000 Descending Philadelphia TRACON
Sun 07:52:10 PM 39.8333 -75.2167 303° West 106 122 900 -737 Descending Philadelphia TRACON
Sun 07:53:10 PM 39.8667 -75.2333 339° North 111 128 200 -700 Descending Philadelphia TRACON

Login

Don't have an account? Register now (free) for customized features, flight alerts, and more!